createdAt,value
2018-05-31T00:01:43.250Z,11.00
2018-05-31T00:04:10.847Z,10.60
2018-05-31T00:06:38.373Z,10.57
2018-05-31T00:09:05.938Z,10.13
2018-05-31T00:11:33.466Z,10.37
2018-05-31T00:14:01.066Z,10.80
2018-05-31T00:16:28.608Z,10.67
2018-05-31T00:18:56.525Z,9.43
2018-05-31T00:21:24.062Z,9.03
2018-05-31T00:23:51.605Z,9.70
2018-05-31T00:26:19.178Z,9.40
2018-05-31T00:28:46.723Z,9.23
2018-05-31T00:31:14.282Z,9.37
2018-05-31T00:33:42.329Z,9.60
2018-05-31T00:36:09.949Z,9.20
2018-05-31T00:38:37.469Z,8.73
2018-05-31T00:41:05.101Z,9.20
2018-05-31T00:43:32.601Z,8.80
2018-05-31T00:46:00.181Z,8.50
2018-05-31T00:48:27.719Z,9.50
2018-05-31T00:50:55.269Z,10.30
2018-05-31T00:53:22.912Z,9.63
2018-05-31T00:56:02.273Z,10.20
2018-05-31T00:58:29.806Z,9.77
2018-05-31T01:00:57.730Z,9.70
2018-05-31T01:03:25.245Z,9.60
2018-05-31T01:05:53.240Z,9.30
2018-05-31T01:08:20.761Z,10.10
2018-05-31T01:10:48.702Z,9.57
2018-05-31T01:13:16.218Z,8.83
2018-05-31T01:15:43.784Z,9.80
2018-05-31T01:18:11.309Z,9.80
2018-05-31T01:20:38.818Z,9.50
2018-05-31T01:23:06.362Z,10.03
2018-05-31T01:25:33.885Z,9.67
2018-05-31T01:28:01.396Z,9.70
2018-05-31T01:30:28.940Z,10.40
2018-05-31T01:32:56.520Z,10.53
2018-05-31T01:35:24.061Z,9.80
2018-05-31T01:37:51.582Z,9.23
2018-05-31T01:40:19.875Z,9.33
2018-05-31T01:42:47.802Z,10.70
2018-05-31T01:45:15.304Z,9.73
2018-05-31T01:47:43.552Z,10.10
2018-05-31T01:50:11.244Z,10.37
2018-05-31T01:52:39.219Z,10.80
2018-05-31T01:55:06.742Z,11.40
2018-05-31T01:57:34.281Z,10.93
2018-05-31T02:00:01.826Z,10.47
2018-05-31T02:02:29.363Z,11.10
2018-05-31T02:04:56.909Z,11.00
2018-05-31T02:07:24.469Z,10.60
2018-05-31T02:09:52.029Z,10.63
2018-05-31T02:12:19.617Z,11.90
2018-05-31T02:14:47.691Z,11.60
2018-05-31T02:17:15.216Z,12.20
2018-05-31T02:19:42.777Z,12.50
2018-05-31T02:22:10.683Z,11.00
2018-05-31T02:24:38.219Z,10.83
2018-05-31T02:27:05.737Z,10.57
2018-05-31T02:29:33.258Z,11.57
2018-05-31T02:32:00.785Z,12.00
2018-05-31T02:34:28.312Z,11.23
2018-05-31T02:36:55.866Z,11.10
2018-05-31T02:39:23.413Z,11.80
2018-05-31T02:41:50.920Z,11.40
2018-05-31T02:44:18.480Z,12.67
2018-05-31T02:46:46.037Z,11.73
2018-05-31T02:49:13.595Z,11.40
2018-05-31T02:51:41.514Z,11.70
2018-05-31T02:54:09.112Z,12.23
2018-05-31T02:56:37.059Z,11.70
2018-05-31T02:59:04.581Z,11.90
2018-05-31T03:01:32.245Z,12.47
2018-05-31T03:03:59.769Z,12.47
2018-05-31T03:06:27.708Z,12.10
2018-05-31T03:08:55.240Z,13.00
2018-05-31T03:11:22.852Z,12.23
2018-05-31T03:13:50.795Z,12.83
2018-05-31T03:16:18.315Z,12.33
2018-05-31T03:18:45.866Z,12.80
2018-05-31T03:21:13.421Z,11.80
2018-05-31T03:23:41.015Z,13.40
2018-05-31T03:26:08.644Z,11.90
2018-05-31T03:28:36.171Z,11.77
2018-05-31T03:31:04.082Z,12.80
2018-05-31T03:33:31.640Z,12.10
2018-05-31T03:35:59.172Z,11.80
2018-05-31T03:38:27.111Z,12.00
2018-05-31T03:40:54.643Z,11.27
2018-05-31T03:43:22.287Z,12.23
2018-05-31T03:45:49.931Z,11.27
2018-05-31T03:48:17.568Z,12.00
2018-05-31T03:50:45.102Z,11.97
2018-05-31T03:53:12.705Z,12.30
2018-05-31T03:55:40.234Z,12.57
2018-05-31T03:58:07.798Z,11.07
2018-05-31T04:00:35.340Z,10.60
2018-05-31T04:03:02.893Z,10.97
2018-05-31T04:05:30.501Z,10.60
2018-05-31T04:07:58.414Z,10.17
2018-05-31T04:10:25.940Z,9.30
2018-05-31T04:12:53.456Z,9.07
2018-05-31T04:15:20.975Z,9.67
2018-05-31T04:17:48.480Z,8.40
2018-05-31T04:20:16.073Z,8.93
2018-05-31T04:22:43.616Z,8.63
2018-05-31T04:25:11.595Z,8.73
2018-05-31T04:27:39.509Z,8.13
2018-05-31T04:30:07.154Z,7.70
2018-05-31T04:32:34.669Z,8.13
2018-05-31T04:35:02.250Z,7.53
2018-05-31T04:37:30.173Z,7.80
2018-05-31T04:39:57.687Z,8.17
2018-05-31T04:42:25.247Z,8.27
2018-05-31T04:44:53.125Z,8.07
2018-05-31T04:47:20.764Z,7.73
2018-05-31T04:49:48.734Z,7.87
2018-05-31T04:52:16.422Z,8.80
2018-05-31T04:54:43.981Z,7.60
2018-05-31T04:57:11.513Z,7.93
2018-05-31T04:59:39.419Z,8.20
2018-05-31T05:02:06.948Z,6.57
2018-05-31T05:04:34.492Z,7.90
2018-05-31T05:07:12.619Z,7.40
2018-05-31T05:09:40.167Z,7.30
2018-05-31T05:12:08.141Z,6.83
2018-05-31T05:14:35.665Z,8.20
2018-05-31T05:17:03.347Z,6.50
2018-05-31T05:19:31.261Z,6.83
2018-05-31T05:21:58.808Z,5.90
2018-05-31T05:24:26.332Z,6.37
2018-05-31T05:26:54.266Z,6.67
2018-05-31T05:29:21.878Z,6.60
2018-05-31T05:31:49.426Z,6.77
2018-05-31T05:34:17.480Z,6.40
2018-05-31T05:36:45.491Z,6.20
2018-05-31T05:39:13.010Z,6.83
2018-05-31T05:41:40.996Z,6.17
2018-05-31T05:44:08.927Z,6.07
2018-05-31T05:46:36.460Z,6.03
2018-05-31T05:49:03.986Z,6.10
2018-05-31T05:51:31.524Z,6.33
2018-05-31T05:53:59.072Z,5.70
2018-05-31T05:56:26.676Z,5.97
2018-05-31T05:58:54.287Z,6.40
2018-05-31T06:01:21.815Z,5.17
2018-05-31T06:03:49.351Z,5.20
2018-05-31T06:06:16.893Z,5.60
2018-05-31T06:08:44.872Z,5.73
2018-05-31T06:11:12.401Z,6.10
2018-05-31T06:13:40.098Z,5.30
2018-05-31T06:16:08.064Z,5.23
2018-05-31T06:18:36.070Z,5.17
2018-05-31T06:21:03.605Z,5.20
2018-05-31T06:23:31.177Z,4.40
2018-05-31T06:25:58.710Z,5.10
2018-05-31T06:28:26.228Z,5.03
2018-05-31T06:30:53.749Z,4.90
2018-05-31T06:33:21.310Z,4.67
2018-05-31T06:35:48.838Z,4.43
2018-05-31T06:38:16.498Z,5.00
2018-05-31T06:40:43.941Z,5.20
2018-05-31T06:43:11.497Z,4.70
2018-05-31T06:45:39.007Z,4.60
2018-05-31T06:48:06.534Z,5.57
2018-05-31T06:50:34.059Z,4.90
2018-05-31T06:53:01.645Z,5.27
2018-05-31T06:55:29.745Z,4.70
2018-05-31T06:57:57.726Z,4.83
2018-05-31T07:00:25.261Z,4.70
2018-05-31T07:02:52.786Z,4.73
2018-05-31T07:05:20.342Z,3.80
2018-05-31T07:07:47.913Z,3.90
2018-05-31T07:10:15.862Z,3.63
2018-05-31T07:12:43.391Z,3.37
2018-05-31T07:15:10.939Z,3.50
2018-05-31T07:17:38.515Z,3.53
2018-05-31T07:20:06.107Z,3.50
2018-05-31T07:22:33.633Z,4.10
2018-05-31T07:25:01.186Z,3.60
2018-05-31T07:27:28.725Z,3.50
2018-05-31T07:29:56.254Z,3.80
2018-05-31T07:32:29.723Z,3.33
2018-05-31T07:34:57.264Z,3.10
2018-05-31T07:37:24.825Z,4.10
2018-05-31T07:39:52.383Z,2.93
2018-05-31T07:42:19.910Z,3.23
2018-05-31T07:44:47.853Z,3.47
2018-05-31T07:47:15.398Z,3.50
2018-05-31T07:49:42.928Z,3.23
2018-05-31T07:52:10.517Z,2.47
2018-05-31T07:54:38.016Z,2.90
2018-05-31T07:57:05.981Z,3.50
2018-05-31T07:59:33.543Z,3.10
2018-05-31T08:02:01.465Z,2.90
2018-05-31T08:04:29.023Z,3.70
2018-05-31T08:06:56.584Z,3.70
2018-05-31T08:09:24.120Z,3.53
2018-05-31T08:11:51.643Z,3.33
2018-05-31T08:14:19.597Z,3.10
2018-05-31T08:16:47.618Z,2.47
2018-05-31T08:19:15.140Z,3.23
2018-05-31T08:21:43.245Z,2.83
2018-05-31T08:24:10.783Z,3.23
2018-05-31T08:26:38.330Z,3.67
2018-05-31T08:29:05.891Z,3.30
2018-05-31T08:31:33.913Z,3.60
2018-05-31T08:34:01.441Z,3.10
2018-05-31T08:36:29.025Z,2.90
2018-05-31T08:38:56.734Z,3.33
2018-05-31T08:41:24.245Z,3.20
2018-05-31T08:43:51.769Z,3.70
2018-05-31T08:46:19.329Z,3.40
2018-05-31T08:48:47.264Z,3.27
2018-05-31T08:51:14.797Z,3.07
2018-05-31T08:53:42.328Z,3.43
2018-05-31T08:56:09.863Z,3.33
2018-05-31T08:58:37.835Z,2.80
2018-05-31T09:01:05.433Z,2.73
2018-05-31T09:03:32.961Z,2.80
2018-05-31T09:06:00.932Z,2.75
2018-05-31T09:08:28.520Z,2.70
2018-05-31T09:10:56.057Z,3.30
2018-05-31T09:13:23.582Z,3.37
2018-05-31T09:15:51.141Z,4.77
2018-05-31T09:18:18.670Z,2.60
2018-05-31T09:20:46.198Z,3.23
2018-05-31T09:23:13.758Z,2.90
2018-05-31T09:25:41.307Z,2.97
2018-05-31T09:28:08.845Z,3.53
2018-05-31T09:30:36.792Z,3.00
2018-05-31T09:33:04.414Z,3.00
2018-05-31T09:35:31.948Z,2.90
2018-05-31T09:37:59.879Z,2.57
2018-05-31T09:40:27.412Z,2.53
2018-05-31T09:42:54.928Z,2.80
2018-05-31T09:45:22.929Z,2.40
2018-05-31T09:47:50.462Z,2.87
2018-05-31T09:50:18.464Z,2.90
2018-05-31T09:52:45.997Z,2.53
2018-05-31T09:55:13.936Z,2.77
2018-05-31T09:57:41.500Z,3.33
2018-05-31T10:00:09.067Z,2.60
2018-05-31T10:02:37.000Z,2.60
2018-05-31T10:05:04.628Z,3.10
2018-05-31T10:07:32.156Z,2.70
2018-05-31T10:10:00.165Z,3.10
2018-05-31T10:12:27.707Z,2.70
2018-05-31T10:14:55.226Z,3.10
2018-05-31T10:17:22.771Z,3.03
2018-05-31T10:19:50.389Z,2.60
2018-05-31T10:22:17.937Z,2.70
2018-05-31T10:24:45.862Z,2.30
2018-05-31T10:27:13.423Z,2.90
2018-05-31T10:29:40.949Z,3.73
2018-05-31T10:32:08.480Z,3.27
2018-05-31T10:34:36.419Z,3.10
2018-05-31T10:37:04.042Z,3.33
2018-05-31T10:39:31.598Z,3.77
2018-05-31T10:41:59.149Z,3.37
2018-05-31T10:44:26.716Z,3.17
2018-05-31T10:46:54.244Z,4.00
2018-05-31T10:49:22.164Z,3.60
2018-05-31T10:51:49.723Z,3.60
2018-05-31T10:54:17.523Z,3.40
2018-05-31T10:56:45.059Z,3.23
2018-05-31T10:59:12.610Z,3.30
2018-05-31T11:01:40.239Z,3.50
2018-05-31T11:04:07.777Z,3.07
2018-05-31T11:06:35.749Z,3.03
2018-05-31T11:09:03.806Z,2.80
2018-05-31T11:11:31.337Z,3.17
2018-05-31T11:13:58.860Z,2.70
2018-05-31T11:16:26.394Z,3.20
2018-05-31T11:18:54.065Z,3.47
2018-05-31T11:21:21.611Z,3.60
2018-05-31T11:23:49.125Z,4.17
2018-05-31T11:26:16.666Z,4.70
2018-05-31T11:28:44.646Z,5.00
2018-05-31T11:31:12.214Z,4.53
2018-05-31T11:33:39.730Z,5.40
2018-05-31T11:36:07.234Z,4.40
2018-05-31T11:38:34.891Z,5.40
2018-05-31T11:41:02.411Z,5.27
2018-05-31T11:43:29.915Z,5.97
2018-05-31T11:45:57.543Z,5.60
2018-05-31T11:48:25.447Z,6.07
2018-05-31T11:50:52.957Z,5.67
2018-05-31T11:53:20.858Z,5.60
2018-05-31T11:55:48.391Z,5.77
2018-05-31T11:58:16.281Z,5.90
2018-05-31T12:00:43.804Z,6.00
2018-05-31T12:03:11.305Z,6.30
2018-05-31T12:05:38.825Z,5.80
2018-05-31T12:08:06.331Z,6.40
2018-05-31T12:10:33.864Z,5.90
2018-05-31T12:13:01.377Z,5.80
2018-05-31T12:15:28.897Z,6.50
2018-05-31T12:17:56.396Z,5.77
2018-05-31T12:20:23.926Z,6.20
2018-05-31T12:22:51.430Z,6.30
2018-05-31T12:25:19.788Z,5.23
2018-05-31T12:27:47.292Z,5.50
2018-05-31T12:30:14.819Z,7.43
2018-05-31T12:32:42.337Z,6.70
2018-05-31T12:35:09.849Z,7.47
2018-05-31T12:37:37.760Z,6.70
2018-05-31T12:40:05.416Z,6.80
2018-05-31T12:42:32.974Z,6.53
2018-05-31T12:45:00.476Z,6.40
2018-05-31T12:47:27.993Z,7.20
2018-05-31T12:49:55.512Z,6.40
2018-05-31T12:52:23.023Z,7.37
2018-05-31T12:54:50.601Z,7.40
2018-05-31T12:57:18.108Z,7.47
2018-05-31T12:59:45.652Z,7.00
2018-05-31T13:02:13.661Z,6.93
2018-05-31T13:04:41.329Z,7.00
2018-05-31T13:07:08.862Z,6.63
2018-05-31T13:09:36.379Z,6.67
2018-05-31T13:12:05.495Z,7.40
2018-05-31T13:14:33.106Z,6.87
2018-05-31T13:17:00.708Z,7.53
2018-05-31T13:19:28.226Z,7.77
2018-05-31T13:21:55.733Z,6.87
2018-05-31T13:24:23.237Z,7.27
2018-05-31T13:26:50.766Z,6.70
2018-05-31T13:29:18.675Z,6.97
2018-05-31T13:31:46.202Z,7.90
2018-05-31T13:34:13.711Z,7.00
2018-05-31T13:36:41.290Z,6.90
2018-05-31T13:39:08.859Z,7.30
2018-05-31T13:41:36.777Z,6.80
2018-05-31T13:44:04.299Z,7.33
2018-05-31T13:46:32.293Z,7.80
2018-05-31T13:48:59.825Z,6.60
2018-05-31T13:51:27.964Z,6.87
2018-05-31T13:53:55.501Z,6.70
2018-05-31T13:56:23.025Z,8.03
2018-05-31T13:58:50.543Z,7.03
2018-05-31T14:01:18.061Z,6.83
2018-05-31T14:03:45.564Z,6.20
2018-05-31T14:06:13.081Z,6.40
2018-05-31T14:08:40.594Z,6.30
2018-05-31T14:11:08.544Z,6.90
2018-05-31T14:13:36.071Z,7.10
2018-05-31T14:16:03.578Z,7.90
2018-05-31T14:18:31.142Z,6.80
2018-05-31T14:20:58.688Z,6.93
2018-05-31T14:23:26.192Z,7.13
2018-05-31T14:25:53.712Z,6.60
2018-05-31T14:28:21.225Z,6.47
2018-05-31T14:30:48.742Z,6.90
2018-05-31T14:33:16.711Z,7.30
2018-05-31T14:35:44.646Z,6.40
2018-05-31T14:38:12.146Z,6.50
2018-05-31T14:40:40.049Z,6.60
2018-05-31T14:43:07.627Z,6.60
2018-05-31T14:45:35.213Z,6.50
2018-05-31T14:48:02.785Z,7.17
2018-05-31T14:50:30.758Z,7.17
2018-05-31T14:52:58.340Z,6.87
2018-05-31T14:55:25.860Z,7.60
2018-05-31T14:57:53.353Z,7.53
2018-05-31T15:00:20.890Z,6.10
2018-05-31T15:02:49.048Z,6.73
2018-05-31T15:05:16.581Z,6.50
2018-05-31T15:07:44.210Z,7.10
2018-05-31T15:10:12.427Z,6.60
2018-05-31T15:12:40.251Z,6.70
2018-05-31T15:15:07.804Z,7.00
2018-05-31T15:17:35.300Z,7.70
2018-05-31T15:20:02.807Z,6.93
2018-05-31T15:22:30.770Z,7.00
2018-05-31T15:24:58.758Z,7.73
2018-05-31T15:27:26.280Z,7.17
2018-05-31T15:29:54.092Z,7.23
